sensor_id;sensor_type;location;lat;lon;timestamp;temperature;humidity
63317;DHT22;49822;41.468;13.560;2022-08-05T00:00:32;22.30;93.20
63317;DHT22;49822;41.468;13.560;2022-08-05T00:03:12;22.40;93.40
63317;DHT22;49822;41.468;13.560;2022-08-05T00:05:41;22.40;92.20
63317;DHT22;49822;41.468;13.560;2022-08-05T00:08:29;22.30;90.90
63317;DHT22;49822;41.468;13.560;2022-08-05T00:11:05;22.30;91.70
63317;DHT22;49822;41.468;13.560;2022-08-05T00:13:49;22.30;92.20
63317;DHT22;49822;41.468;13.560;2022-08-05T00:16:19;22.10;89.80
63317;DHT22;49822;41.468;13.560;2022-08-05T00:19:06;21.90;91.90
63317;DHT22;49822;41.468;13.560;2022-08-05T00:21:34;22.00;92.70
63317;DHT22;49822;41.468;13.560;2022-08-05T00:24:03;22.10;93.60
63317;DHT22;49822;41.468;13.560;2022-08-05T00:26:37;22.10;90.90
63317;DHT22;49822;41.468;13.560;2022-08-05T00:29:12;21.90;90.80
63317;DHT22;49822;41.468;13.560;2022-08-05T00:31:39;21.90;94.10
63317;DHT22;49822;41.468;13.560;2022-08-05T00:34:27;22.10;94.00
63317;DHT22;49822;41.468;13.560;2022-08-05T00:37:15;22.10;93.00
63317;DHT22;49822;41.468;13.560;2022-08-05T00:39:43;22.10;92.00
63317;DHT22;49822;41.468;13.560;2022-08-05T00:42:33;22.10;92.70
63317;DHT22;49822;41.468;13.560;2022-08-05T00:45:05;22.00;92.60
63317;DHT22;49822;41.468;13.560;2022-08-05T00:47:35;22.10;93.40
63317;DHT22;49822;41.468;13.560;2022-08-05T00:50:23;21.90;92.00
63317;DHT22;49822;41.468;13.560;2022-08-05T00:52:52;21.90;94.30
63317;DHT22;49822;41.468;13.560;2022-08-05T00:55:22;22.00;94.00
63317;DHT22;49822;41.468;13.560;2022-08-05T00:58:13;22.10;93.60
63317;DHT22;49822;41.468;13.560;2022-08-05T01:00:44;22.00;91.50
63317;DHT22;49822;41.468;13.560;2022-08-05T01:03:13;21.90;92.60
63317;DHT22;49822;41.468;13.560;2022-08-05T01:05:52;22.00;93.60
63317;DHT22;49822;41.468;13.560;2022-08-05T01:08:21;22.00;92.20
63317;DHT22;49822;41.468;13.560;2022-08-05T01:11:13;22.10;92.30
63317;DHT22;49822;41.468;13.560;2022-08-05T01:14:08;21.90;90.70
63317;DHT22;49822;41.468;13.560;2022-08-05T01:30:45;22.10;93.50
63317;DHT22;49822;41.468;13.560;2022-08-05T01:33:25;22.00;91.70
63317;DHT22;49822;41.468;13.560;2022-08-05T01:36:05;21.70;89.70
63317;DHT22;49822;41.468;13.560;2022-08-05T01:38:44;21.50;93.30
63317;DHT22;49822;41.468;13.560;2022-08-05T01:41:17;21.60;95.20
63317;DHT22;49822;41.468;13.560;2022-08-05T01:43:50;21.70;95.00
63317;DHT22;49822;41.468;13.560;2022-08-05T01:46:19;21.80;94.70
63317;DHT22;49822;41.468;13.560;2022-08-05T01:49:09;21.70;91.10
63317;DHT22;49822;41.468;13.560;2022-08-05T01:51:56;21.50;93.70
63317;DHT22;49822;41.468;13.560;2022-08-05T01:54:32;21.70;94.60
63317;DHT22;49822;41.468;13.560;2022-08-05T01:57:13;21.80;94.00
63317;DHT22;49822;41.468;13.560;2022-08-05T02:00:07;21.80;93.30
63317;DHT22;49822;41.468;13.560;2022-08-05T02:02:42;21.50;91.00
63317;DHT22;49822;41.468;13.560;2022-08-05T02:05:22;21.50;93.10
63317;DHT22;49822;41.468;13.560;2022-08-05T02:07:55;21.40;93.00
63317;DHT22;49822;41.468;13.560;2022-08-05T02:10:32;21.40;94.10
63317;DHT22;49822;41.468;13.560;2022-08-05T02:13:12;21.50;93.90
63317;DHT22;49822;41.468;13.560;2022-08-05T02:15:58;21.40;91.50
63317;DHT22;49822;41.468;13.560;2022-08-05T02:18:46;21.20;93.10
63317;DHT22;49822;41.468;13.560;2022-08-05T02:21:17;21.40;94.80
63317;DHT22;49822;41.468;13.560;2022-08-05T02:23:49;21.50;96.00
63317;DHT22;49822;41.468;13.560;2022-08-05T02:26:22;21.70;96.10
63317;DHT22;49822;41.468;13.560;2022-08-05T02:28:54;21.70;94.10
63317;DHT22;49822;41.468;13.560;2022-08-05T02:31:27;21.80;94.70
63317;DHT22;49822;41.468;13.560;2022-08-05T02:34:07;21.70;91.30
63317;DHT22;49822;41.468;13.560;2022-08-05T02:36:40;21.50;90.80
63317;DHT22;49822;41.468;13.560;2022-08-05T02:39:08;21.50;93.30
63317;DHT22;49822;41.468;13.560;2022-08-05T02:41:38;21.60;93.50
63317;DHT22;49822;41.468;13.560;2022-08-05T02:44:28;21.70;93.60
63317;DHT22;49822;41.468;13.560;2022-08-05T02:46:57;21.70;93.90
63317;DHT22;49822;41.468;13.560;2022-08-05T02:49:33;21.70;93.40
63317;DHT22;49822;41.468;13.560;2022-08-05T02:52:14;21.70;91.70
63317;DHT22;49822;41.468;13.560;2022-08-05T02:54:57;21.70;93.20
63317;DHT22;49822;41.468;13.560;2022-08-05T02:57:32;21.70;93.40
63317;DHT22;49822;41.468;13.560;2022-08-05T03:00:21;21.70;92.50
63317;DHT22;49822;41.468;13.560;2022-08-05T03:02:52;21.70;93.40
63317;DHT22;49822;41.468;13.560;2022-08-05T03:05:19;21.70;92.60
63317;DHT22;49822;41.468;13.560;2022-08-05T03:08:09;21.70;92.20
63317;DHT22;49822;41.468;13.560;2022-08-05T03:10:37;21.70;92.50
63317;DHT22;49822;41.468;13.560;2022-08-05T03:13:15;21.70;92.90
63317;DHT22;49822;41.468;13.560;2022-08-05T03:15:44;21.70;90.30
63317;DHT22;49822;41.468;13.560;2022-08-05T03:18:12;21.10;89.90
63317;DHT22;49822;41.468;13.560;2022-08-05T03:20:43;21.00;92.00
63317;DHT22;49822;41.468;13.560;2022-08-05T03:23:16;20.90;92.60
63317;DHT22;49822;41.468;13.560;2022-08-05T03:25:49;20.80;93.50
63317;DHT22;49822;41.468;13.560;2022-08-05T03:28:37;20.70;93.80
63317;DHT22;49822;41.468;13.560;2022-08-05T03:31:05;20.70;95.20
63317;DHT22;49822;41.468;13.560;2022-08-05T03:33:34;20.90;96.60
63317;DHT22;49822;41.468;13.560;2022-08-05T03:36:19;20.80;94.40
63317;DHT22;49822;41.468;13.560;2022-08-05T03:38:56;20.80;93.70
63317;DHT22;49822;41.468;13.560;2022-08-05T03:41:24;21.00;96.10
63317;DHT22;49822;41.468;13.560;2022-08-05T03:43:59;20.90;93.40
63317;DHT22;49822;41.468;13.560;2022-08-05T03:46:37;20.90;95.00
63317;DHT22;49822;41.468;13.560;2022-08-05T03:49:05;21.00;94.70
63317;DHT22;49822;41.468;13.560;2022-08-05T03:54:53;21.10;93.10
63317;DHT22;49822;41.468;13.560;2022-08-05T03:57:44;21.10;93.00
63317;DHT22;49822;41.468;13.560;2022-08-05T04:00:14;21.20;94.50
63317;DHT22;49822;41.468;13.560;2022-08-05T04:02:48;21.30;93.20
63317;DHT22;49822;41.468;13.560;2022-08-05T04:05:28;21.10;91.10
63317;DHT22;49822;41.468;13.560;2022-08-05T04:08:05;21.10;93.10
63317;DHT22;49822;41.468;13.560;2022-08-05T04:10:54;21.10;92.50
63317;DHT22;49822;41.468;13.560;2022-08-05T04:13:23;21.30;91.50
63317;DHT22;49822;41.468;13.560;2022-08-05T04:16:13;21.40;90.20
63317;DHT22;49822;41.468;13.560;2022-08-05T04:18:40;21.40;88.70
63317;DHT22;49822;41.468;13.560;2022-08-05T04:21:13;21.10;90.20
63317;DHT22;49822;41.468;13.560;2022-08-05T04:24:01;21.10;90.50
63317;DHT22;49822;41.468;13.560;2022-08-05T04:26:35;20.90;92.10
63317;DHT22;49822;41.468;13.560;2022-08-05T04:29:02;20.80;93.20
63317;DHT22;49822;41.468;13.560;2022-08-05T04:31:33;21.00;94.50
63317;DHT22;49822;41.468;13.560;2022-08-05T04:34:05;21.10;93.80
63317;DHT22;49822;41.468;13.560;2022-08-05T04:36:46;21.20;93.80
63317;DHT22;49822;41.468;13.560;2022-08-05T04:39:19;21.40;93.50
63317;DHT22;49822;41.468;13.560;2022-08-05T04:41:47;21.50;92.70
63317;DHT22;49822;41.468;13.560;2022-08-05T04:44:18;21.40;91.50
63317;DHT22;49822;41.468;13.560;2022-08-05T04:46:57;21.50;91.40
63317;DHT22;49822;41.468;13.560;2022-08-05T04:49:27;21.50;90.80
63317;DHT22;49822;41.468;13.560;2022-08-05T04:52:16;21.50;90.50
63317;DHT22;49822;41.468;13.560;2022-08-05T04:54:44;21.70;91.20
63317;DHT22;49822;41.468;13.560;2022-08-05T04:57:12;21.70;91.20
63317;DHT22;49822;41.468;13.560;2022-08-05T04:59:40;21.50;88.30
63317;DHT22;49822;41.468;13.560;2022-08-05T05:02:13;21.60;91.60
63317;DHT22;49822;41.468;13.560;2022-08-05T05:05:03;21.70;91.10
63317;DHT22;49822;41.468;13.560;2022-08-05T05:07:54;21.90;90.70
63317;DHT22;49822;41.468;13.560;2022-08-05T05:10:29;21.70;87.70
63317;DHT22;49822;41.468;13.560;2022-08-05T05:13:00;21.60;90.40
63317;DHT22;49822;41.468;13.560;2022-08-05T05:15:31;21.70;91.40
63317;DHT22;49822;41.468;13.560;2022-08-05T05:18:19;21.90;90.90
63317;DHT22;49822;41.468;13.560;2022-08-05T05:21:01;21.90;90.00
63317;DHT22;49822;41.468;13.560;2022-08-05T05:23:30;21.90;90.70
63317;DHT22;49822;41.468;13.560;2022-08-05T05:26:19;22.00;90.50
63317;DHT22;49822;41.468;13.560;2022-08-05T05:28:58;22.00;90.70
63317;DHT22;49822;41.468;13.560;2022-08-05T05:31:26;22.10;90.90
63317;DHT22;49822;41.468;13.560;2022-08-05T05:33:56;22.20;91.30
63317;DHT22;49822;41.468;13.560;2022-08-05T05:36:26;22.30;90.80
63317;DHT22;49822;41.468;13.560;2022-08-05T05:38:56;22.30;89.40
63317;DHT22;49822;41.468;13.560;2022-08-05T05:41:25;22.20;89.40
63317;DHT22;49822;41.468;13.560;2022-08-05T05:44:06;22.20;89.30
63317;DHT22;49822;41.468;13.560;2022-08-05T05:46:54;22.30;88.90
63317;DHT22;49822;41.468;13.560;2022-08-05T05:49:24;22.50;89.30
63317;DHT22;49822;41.468;13.560;2022-08-05T05:51:55;22.70;89.60
63317;DHT22;49822;41.468;13.560;2022-08-05T05:54:23;22.70;87.50
63317;DHT22;49822;41.468;13.560;2022-08-05T05:57:11;22.60;87.50
63317;DHT22;49822;41.468;13.560;2022-08-05T05:59:45;22.70;88.00
63317;DHT22;49822;41.468;13.560;2022-08-05T06:02:14;22.80;88.10
63317;DHT22;49822;41.468;13.560;2022-08-05T06:04:43;23.00;87.50
63317;DHT22;49822;41.468;13.560;2022-08-05T06:07:16;23.10;86.50
63317;DHT22;49822;41.468;13.560;2022-08-05T06:09:48;23.10;86.30
63317;DHT22;49822;41.468;13.560;2022-08-05T06:12:34;23.20;87.00
63317;DHT22;49822;41.468;13.560;2022-08-05T06:15:08;23.40;85.40
63317;DHT22;49822;41.468;13.560;2022-08-05T06:17:50;23.50;86.70
63317;DHT22;49822;41.468;13.560;2022-08-05T06:20:19;23.70;85.70
63317;DHT22;49822;41.468;13.560;2022-08-05T06:22:48;23.80;84.10
63317;DHT22;49822;41.468;13.560;2022-08-05T06:25:16;24.00;84.60
63317;DHT22;49822;41.468;13.560;2022-08-05T06:28:03;24.20;82.20
63317;DHT22;49822;41.468;13.560;2022-08-05T06:30:45;24.30;82.10
63317;DHT22;49822;41.468;13.560;2022-08-05T06:33:15;24.40;80.20
63317;DHT22;49822;41.468;13.560;2022-08-05T06:35:59;24.60;80.10
63317;DHT22;49822;41.468;13.560;2022-08-05T06:38:35;24.70;79.10
63317;DHT22;49822;41.468;13.560;2022-08-05T06:41:04;24.80;78.40
63317;DHT22;49822;41.468;13.560;2022-08-05T06:43:35;24.80;77.80
63317;DHT22;49822;41.468;13.560;2022-08-05T06:46:23;25.00;78.80
63317;DHT22;49822;41.468;13.560;2022-08-05T06:48:57;24.90;77.30
63317;DHT22;49822;41.468;13.560;2022-08-05T06:51:27;24.90;78.90
63317;DHT22;49822;41.468;13.560;2022-08-05T06:56:47;25.00;73.50
63317;DHT22;49822;41.468;13.560;2022-08-05T06:59:35;24.50;75.30
63317;DHT22;49822;41.468;13.560;2022-08-05T07:02:08;24.50;77.20
63317;DHT22;49822;41.468;13.560;2022-08-05T07:04:35;24.60;76.20
63317;DHT22;49822;41.468;13.560;2022-08-05T07:07:03;24.50;76.40
63317;DHT22;49822;41.468;13.560;2022-08-05T07:09:34;24.70;76.20
63317;DHT22;49822;41.468;13.560;2022-08-05T07:12:06;25.00;75.80
63317;DHT22;49822;41.468;13.560;2022-08-05T07:14:36;25.00;76.40
63317;DHT22;49822;41.468;13.560;2022-08-05T07:17:23;25.20;76.80
63317;DHT22;49822;41.468;13.560;2022-08-05T07:20:11;25.30;77.20
63317;DHT22;49822;41.468;13.560;2022-08-05T07:22:59;25.50;76.20
63317;DHT22;49822;41.468;13.560;2022-08-05T07:26:02;25.40;76.30
63317;DHT22;49822;41.468;13.560;2022-08-05T07:28:32;25.60;76.60
63317;DHT22;49822;41.468;13.560;2022-08-05T07:30:59;25.50;75.80
63317;DHT22;49822;41.468;13.560;2022-08-05T07:33:28;25.50;74.50
63317;DHT22;49822;41.468;13.560;2022-08-05T07:36:04;25.50;75.00
63317;DHT22;49822;41.468;13.560;2022-08-05T07:38:47;25.70;73.70
63317;DHT22;49822;41.468;13.560;2022-08-05T07:41:24;25.90;74.30
63317;DHT22;49822;41.468;13.560;2022-08-05T07:44:12;26.00;72.80
63317;DHT22;49822;41.468;13.560;2022-08-05T07:46:46;26.00;71.40
63317;DHT22;49822;41.468;13.560;2022-08-05T07:49:21;26.10;71.10
63317;DHT22;49822;41.468;13.560;2022-08-05T07:51:49;26.10;72.40
63317;DHT22;49822;41.468;13.560;2022-08-05T07:54:24;26.30;69.60
63317;DHT22;49822;41.468;13.560;2022-08-05T07:57:13;26.40;69.80
63317;DHT22;49822;41.468;13.560;2022-08-05T08:00:05;26.60;68.30
63317;DHT22;49822;41.468;13.560;2022-08-05T08:02:40;26.60;66.80
63317;DHT22;49822;41.468;13.560;2022-08-05T08:05:27;26.80;67.90
63317;DHT22;49822;41.468;13.560;2022-08-05T08:08:15;26.90;66.80
63317;DHT22;49822;41.468;13.560;2022-08-05T08:10:46;27.00;66.00
63317;DHT22;49822;41.468;13.560;2022-08-05T08:13:15;27.10;64.60
63317;DHT22;49822;41.468;13.560;2022-08-05T08:15:55;27.20;64.20
63317;DHT22;49822;41.468;13.560;2022-08-05T08:18:42;27.20;64.60
63317;DHT22;49822;41.468;13.560;2022-08-05T08:21:16;27.30;63.10
63317;DHT22;49822;41.468;13.560;2022-08-05T08:23:44;27.30;62.80
63317;DHT22;49822;41.468;13.560;2022-08-05T08:26:45;27.20;64.70
63317;DHT22;49822;41.468;13.560;2022-08-05T08:29:18;27.40;65.60
63317;DHT22;49822;41.468;13.560;2022-08-05T08:32:05;27.70;64.00
63317;DHT22;49822;41.468;13.560;2022-08-05T08:34:37;28.00;64.80
63317;DHT22;49822;41.468;13.560;2022-08-05T08:37:04;28.00;62.50
63317;DHT22;49822;41.468;13.560;2022-08-05T08:39:33;28.10;62.00
63317;DHT22;49822;41.468;13.560;2022-08-05T08:42:04;28.00;62.90
63317;DHT22;49822;41.468;13.560;2022-08-05T08:44:56;28.00;62.70
63317;DHT22;49822;41.468;13.560;2022-08-05T08:47:45;28.10;61.80
63317;DHT22;49822;41.468;13.560;2022-08-05T08:50:35;28.30;61.90
63317;DHT22;49822;41.468;13.560;2022-08-05T08:53:27;28.40;60.00
63317;DHT22;49822;41.468;13.560;2022-08-05T08:55:58;28.40;59.80
63317;DHT22;49822;41.468;13.560;2022-08-05T08:58:32;28.50;60.40
63317;DHT22;49822;41.468;13.560;2022-08-05T09:01:10;28.60;57.90
63317;DHT22;49822;41.468;13.560;2022-08-05T09:03:49;28.70;58.00
63317;DHT22;49822;41.468;13.560;2022-08-05T09:06:26;28.90;58.10
63317;DHT22;49822;41.468;13.560;2022-08-05T09:09:00;29.00;56.20
63317;DHT22;49822;41.468;13.560;2022-08-05T09:11:28;29.10;55.00
63317;DHT22;49822;41.468;13.560;2022-08-05T09:14:16;29.20;55.50
63317;DHT22;49822;41.468;13.560;2022-08-05T09:17:08;29.40;57.60
63317;DHT22;49822;41.468;13.560;2022-08-05T09:19:58;29.50;55.50
63317;DHT22;49822;41.468;13.560;2022-08-05T09:23:09;29.50;54.70
63317;DHT22;49822;41.468;13.560;2022-08-05T09:25:51;29.70;53.50
63317;DHT22;49822;41.468;13.560;2022-08-05T09:28:31;30.00;52.60
63317;DHT22;49822;41.468;13.560;2022-08-05T09:31:04;29.90;53.20
63317;DHT22;49822;41.468;13.560;2022-08-05T09:36:57;30.10;55.40
63317;DHT22;49822;41.468;13.560;2022-08-05T09:39:26;30.20;52.50
63317;DHT22;49822;41.468;13.560;2022-08-05T09:42:14;30.20;52.70
63317;DHT22;49822;41.468;13.560;2022-08-05T09:44:54;30.30;53.20
63317;DHT22;49822;41.468;13.560;2022-08-05T09:47:43;30.60;52.50
63317;DHT22;49822;41.468;13.560;2022-08-05T09:50:36;30.60;52.30
63317;DHT22;49822;41.468;13.560;2022-08-05T09:53:11;30.80;51.80
63317;DHT22;49822;41.468;13.560;2022-08-05T09:55:56;31.00;50.40
63317;DHT22;49822;41.468;13.560;2022-08-05T09:58:39;31.00;51.20
63317;DHT22;49822;41.468;13.560;2022-08-05T10:01:11;31.10;53.30
63317;DHT22;49822;41.468;13.560;2022-08-05T10:04:03;31.40;50.90
63317;DHT22;49822;41.468;13.560;2022-08-05T10:06:56;31.50;50.70
63317;DHT22;49822;41.468;13.560;2022-08-05T10:09:27;31.70;48.90
63317;DHT22;49822;41.468;13.560;2022-08-05T10:12:11;31.60;48.10
63317;DHT22;49822;41.468;13.560;2022-08-05T10:15:47;31.10;49.70
63317;DHT22;49822;41.468;13.560;2022-08-05T10:18:14;31.10;48.30
63317;DHT22;49822;41.468;13.560;2022-08-05T10:20:48;30.90;50.00
63317;DHT22;49822;41.468;13.560;2022-08-05T10:23:20;31.20;49.10
63317;DHT22;49822;41.468;13.560;2022-08-05T10:26:10;31.40;50.50
63317;DHT22;49822;41.468;13.560;2022-08-05T10:28:42;31.80;50.60
63317;DHT22;49822;41.468;13.560;2022-08-05T10:31:11;31.80;49.10
63317;DHT22;49822;41.468;13.560;2022-08-05T10:33:59;32.00;48.70
63317;DHT22;49822;41.468;13.560;2022-08-05T10:36:35;32.40;48.80
63317;DHT22;49822;41.468;13.560;2022-08-05T10:39:30;32.50;47.30
63317;DHT22;49822;41.468;13.560;2022-08-05T10:42:21;32.40;47.60
63317;DHT22;49822;41.468;13.560;2022-08-05T10:45:01;32.20;46.40
63317;DHT22;49822;41.468;13.560;2022-08-05T10:47:50;32.20;49.70
63317;DHT22;49822;41.468;13.560;2022-08-05T10:51:06;32.20;46.40
63317;DHT22;49822;41.468;13.560;2022-08-05T10:53:54;32.30;47.30
63317;DHT22;49822;41.468;13.560;2022-08-05T10:56:29;32.00;46.90
63317;DHT22;49822;41.468;13.560;2022-08-05T10:59:05;32.00;48.20
63317;DHT22;49822;41.468;13.560;2022-08-05T11:02:10;32.40;47.30
63317;DHT22;49822;41.468;13.560;2022-08-05T11:05:07;32.60;47.70
63317;DHT22;49822;41.468;13.560;2022-08-05T11:08:06;33.10;45.10
63317;DHT22;49822;41.468;13.560;2022-08-05T11:10:54;33.00;45.50
63317;DHT22;49822;41.468;13.560;2022-08-05T11:13:44;32.70;46.70
63317;DHT22;49822;41.468;13.560;2022-08-05T11:16:30;32.80;46.00
63317;DHT22;49822;41.468;13.560;2022-08-05T11:19:28;33.10;45.20
63317;DHT22;49822;41.468;13.560;2022-08-05T11:25:37;33.10;43.80
63317;DHT22;49822;41.468;13.560;2022-08-05T11:33:35;32.60;44.40
63317;DHT22;49822;41.468;13.560;2022-08-05T11:36:14;32.60;45.60
63317;DHT22;49822;41.468;13.560;2022-08-05T11:39:07;32.60;44.40
63317;DHT22;49822;41.468;13.560;2022-08-05T11:41:40;32.60;45.90
63317;DHT22;49822;41.468;13.560;2022-08-05T11:44:36;32.60;46.00
63317;DHT22;49822;41.468;13.560;2022-08-05T11:47:22;32.80;46.70
63317;DHT22;49822;41.468;13.560;2022-08-05T11:50:11;32.80;45.20
63317;DHT22;49822;41.468;13.560;2022-08-05T11:52:40;32.70;45.80
63317;DHT22;49822;41.468;13.560;2022-08-05T11:55:12;32.80;46.20
63317;DHT22;49822;41.468;13.560;2022-08-05T11:57:45;32.70;46.40
63317;DHT22;49822;41.468;13.560;2022-08-05T12:00:32;32.50;47.60
63317;DHT22;49822;41.468;13.560;2022-08-05T12:03:20;32.20;48.70
63317;DHT22;49822;41.468;13.560;2022-08-05T12:06:03;32.20;48.50
63317;DHT22;49822;41.468;13.560;2022-08-05T12:08:45;32.30;47.50
63317;DHT22;49822;41.468;13.560;2022-08-05T12:13:58;32.40;48.50
63317;DHT22;49822;41.468;13.560;2022-08-05T12:16:32;32.50;48.10
63317;DHT22;49822;41.468;13.560;2022-08-05T12:19:08;32.40;47.20
63317;DHT22;49822;41.468;13.560;2022-08-05T12:22:04;32.20;47.80
63317;DHT22;49822;41.468;13.560;2022-08-05T12:24:40;32.00;47.70
63317;DHT22;49822;41.468;13.560;2022-08-05T12:27:25;31.90;49.00
63317;DHT22;49822;41.468;13.560;2022-08-05T12:30:08;32.00;48.00
63317;DHT22;49822;41.468;13.560;2022-08-05T12:32:47;32.00;49.80
63317;DHT22;49822;41.468;13.560;2022-08-05T12:35:22;32.10;49.00
63317;DHT22;49822;41.468;13.560;2022-08-05T12:38:06;32.00;49.60
63317;DHT22;49822;41.468;13.560;2022-08-05T12:40:36;32.20;49.80
63317;DHT22;49822;41.468;13.560;2022-08-05T12:43:10;32.10;49.60
63317;DHT22;49822;41.468;13.560;2022-08-05T12:45:54;32.20;49.80
63317;DHT22;49822;41.468;13.560;2022-08-05T12:48:22;32.20;49.30
63317;DHT22;49822;41.468;13.560;2022-08-05T12:51:14;32.20;49.70
63317;DHT22;49822;41.468;13.560;2022-08-05T12:54:06;32.20;49.80
63317;DHT22;49822;41.468;13.560;2022-08-05T12:56:47;32.40;49.20
63317;DHT22;49822;41.468;13.560;2022-08-05T12:59:19;32.40;50.10
63317;DHT22;49822;41.468;13.560;2022-08-05T13:02:05;32.40;49.10
63317;DHT22;49822;41.468;13.560;2022-08-05T13:04:40;32.20;49.00
63317;DHT22;49822;41.468;13.560;2022-08-05T13:07:25;32.20;49.70
63317;DHT22;49822;41.468;13.560;2022-08-05T13:10:14;32.20;49.00
63317;DHT22;49822;41.468;13.560;2022-08-05T13:12:46;32.50;49.30
63317;DHT22;49822;41.468;13.560;2022-08-05T13:15:30;32.30;49.60
63317;DHT22;49822;41.468;13.560;2022-08-05T13:18:17;32.50;49.50
63317;DHT22;49822;41.468;13.560;2022-08-05T13:20:47;32.50;49.30
63317;DHT22;49822;41.468;13.560;2022-08-05T13:23:16;32.50;49.60
63317;DHT22;49822;41.468;13.560;2022-08-05T13:25:49;32.60;48.60
63317;DHT22;49822;41.468;13.560;2022-08-05T13:28:27;32.50;48.70
63317;DHT22;49822;41.468;13.560;2022-08-05T13:30:58;32.60;48.20
63317;DHT22;49822;41.468;13.560;2022-08-05T13:33:29;33.00;47.90
63317;DHT22;49822;41.468;13.560;2022-08-05T13:36:16;32.80;45.90
63317;DHT22;49822;41.468;13.560;2022-08-05T13:38:44;33.00;47.20
63317;DHT22;49822;41.468;13.560;2022-08-05T13:41:18;32.80;46.70
63317;DHT22;49822;41.468;13.560;2022-08-05T13:43:49;33.00;46.70
63317;DHT22;49822;41.468;13.560;2022-08-05T13:46:22;33.00;46.50
63317;DHT22;49822;41.468;13.560;2022-08-05T13:49:10;32.90;45.30
63317;DHT22;49822;41.468;13.560;2022-08-05T13:51:39;33.00;43.60
63317;DHT22;49822;41.468;13.560;2022-08-05T13:54:14;33.00;44.80
63317;DHT22;49822;41.468;13.560;2022-08-05T13:56:43;32.80;44.30
63317;DHT22;49822;41.468;13.560;2022-08-05T13:59:26;32.80;44.50
63317;DHT22;49822;41.468;13.560;2022-08-05T14:01:58;33.00;43.70
63317;DHT22;49822;41.468;13.560;2022-08-05T14:04:28;33.20;44.40
63317;DHT22;49822;41.468;13.560;2022-08-05T14:07:27;33.10;43.50
63317;DHT22;49822;41.468;13.560;2022-08-05T14:10:17;33.10;42.80
63317;DHT22;49822;41.468;13.560;2022-08-05T14:12:59;33.10;42.50
63317;DHT22;49822;41.468;13.560;2022-08-05T14:15:29;33.30;41.40
63317;DHT22;49822;41.468;13.560;2022-08-05T14:18:16;33.10;42.40
63317;DHT22;49822;41.468;13.560;2022-08-05T14:20:50;33.10;42.10
63317;DHT22;49822;41.468;13.560;2022-08-05T14:23:21;32.80;43.00
63317;DHT22;49822;41.468;13.560;2022-08-05T14:25:56;32.60;43.00
63317;DHT22;49822;41.468;13.560;2022-08-05T14:28:26;32.30;42.60
63317;DHT22;49822;41.468;13.560;2022-08-05T14:30:59;32.20;43.10
63317;DHT22;49822;41.468;13.560;2022-08-05T14:33:28;32.00;43.40
63317;DHT22;49822;41.468;13.560;2022-08-05T14:36:17;32.00;42.70
63317;DHT22;49822;41.468;13.560;2022-08-05T14:38:47;31.90;42.60
63317;DHT22;49822;41.468;13.560;2022-08-05T14:41:15;31.90;42.20
63317;DHT22;49822;41.468;13.560;2022-08-05T14:43:44;31.90;42.70
63317;DHT22;49822;41.468;13.560;2022-08-05T14:46:32;31.90;43.20
63317;DHT22;49822;41.468;13.560;2022-08-05T14:49:03;31.80;42.70
63317;DHT22;49822;41.468;13.560;2022-08-05T14:51:35;31.80;42.70
63317;DHT22;49822;41.468;13.560;2022-08-05T14:54:09;31.70;43.50
63317;DHT22;49822;41.468;13.560;2022-08-05T14:56:57;31.70;43.90
63317;DHT22;49822;41.468;13.560;2022-08-05T14:59:31;31.60;44.00
63317;DHT22;49822;41.468;13.560;2022-08-05T15:02:03;31.50;43.80
63317;DHT22;49822;41.468;13.560;2022-08-05T15:04:42;31.50;43.50
63317;DHT22;49822;41.468;13.560;2022-08-05T15:07:14;31.50;44.40
63317;DHT22;49822;41.468;13.560;2022-08-05T15:10:02;31.50;44.40
63317;DHT22;49822;41.468;13.560;2022-08-05T15:12:37;31.50;43.00
63317;DHT22;49822;41.468;13.560;2022-08-05T15:15:26;31.50;43.50
63317;DHT22;49822;41.468;13.560;2022-08-05T15:18:13;31.50;43.50
63317;DHT22;49822;41.468;13.560;2022-08-05T15:20:43;31.50;42.60
63317;DHT22;49822;41.468;13.560;2022-08-05T15:23:12;31.40;43.00
63317;DHT22;49822;41.468;13.560;2022-08-05T15:25:39;31.40;43.10
63317;DHT22;49822;41.468;13.560;2022-08-05T15:28:22;31.40;42.70
63317;DHT22;49822;41.468;13.560;2022-08-05T15:30:54;31.40;42.60
63317;DHT22;49822;41.468;13.560;2022-08-05T15:33:22;31.50;42.20
63317;DHT22;49822;41.468;13.560;2022-08-05T15:36:09;31.60;42.40
63317;DHT22;49822;41.468;13.560;2022-08-05T15:38:51;31.70;42.30
63317;DHT22;49822;41.468;13.560;2022-08-05T15:41:39;31.90;43.00
63317;DHT22;49822;41.468;13.560;2022-08-05T15:44:25;31.80;42.60
63317;DHT22;49822;41.468;13.560;2022-08-05T15:46:57;31.70;42.30
63317;DHT22;49822;41.468;13.560;2022-08-05T15:49:26;31.80;42.70
63317;DHT22;49822;41.468;13.560;2022-08-05T15:52:14;31.90;42.30
63317;DHT22;49822;41.468;13.560;2022-08-05T15:54:55;32.00;42.50
63317;DHT22;49822;41.468;13.560;2022-08-05T15:57:23;32.00;42.30
63317;DHT22;49822;41.468;13.560;2022-08-05T15:59:59;32.20;42.90
63317;DHT22;49822;41.468;13.560;2022-08-05T16:02:30;32.10;42.10
63317;DHT22;49822;41.468;13.560;2022-08-05T16:04:59;32.20;42.10
63317;DHT22;49822;41.468;13.560;2022-08-05T16:07:27;32.30;42.30
63317;DHT22;49822;41.468;13.560;2022-08-05T16:09:55;32.40;42.00
63317;DHT22;49822;41.468;13.560;2022-08-05T16:12:23;32.40;42.40
63317;DHT22;49822;41.468;13.560;2022-08-05T16:14:51;32.40;42.00
63317;DHT22;49822;41.468;13.560;2022-08-05T16:17:18;32.30;42.00
63317;DHT22;49822;41.468;13.560;2022-08-05T16:19:46;32.20;41.90
63317;DHT22;49822;41.468;13.560;2022-08-05T16:22:33;32.20;42.70
63317;DHT22;49822;41.468;13.560;2022-08-05T16:25:01;32.20;42.30
63317;DHT22;49822;41.468;13.560;2022-08-05T16:27:37;32.30;42.20
63317;DHT22;49822;41.468;13.560;2022-08-05T16:30:25;32.20;42.10
63317;DHT22;49822;41.468;13.560;2022-08-05T16:32:55;32.20;41.70
63317;DHT22;49822;41.468;13.560;2022-08-05T16:35:24;32.30;42.70
63317;DHT22;49822;41.468;13.560;2022-08-05T16:37:58;32.30;42.00
63317;DHT22;49822;41.468;13.560;2022-08-05T16:40:42;32.20;41.50
63317;DHT22;49822;41.468;13.560;2022-08-05T16:43:22;32.10;41.30
63317;DHT22;49822;41.468;13.560;2022-08-05T16:45:52;32.00;41.40
63317;DHT22;49822;41.468;13.560;2022-08-05T16:48:36;32.10;40.80
63317;DHT22;49822;41.468;13.560;2022-08-05T16:51:05;32.20;41.80
63317;DHT22;49822;41.468;13.560;2022-08-05T16:53:39;32.30;50.40
63317;DHT22;49822;41.468;13.560;2022-08-05T16:56:28;32.20;52.40